Time;durP1;ratioP1;P1;durP2;ratioP2;P2;SDS_P1;SDS_P2;PMS_P1;PMS_P2;Temp;Humidity;BMP_temperature;BMP_pressure;BME280_temperature;BME280_humidity;BME280_pressure;Samples;Min_cycle;Max_cycle;Signal;HPM_P1;HPM_P2
2021/05/22 00:00:10;;;;;;;3.33;3.03;;;11.60;99.90;;;;;;5051202;28;20438;-80
2021/05/22 00:02:39;;;;;;;3.43;3.10;;;11.50;99.90;;;;;;5053000;28;20500;-80
2021/05/22 00:05:09;;;;;;;3.60;3.07;;;11.50;99.90;;;;;;5052028;28;20433;-80
2021/05/22 00:07:37;;;;;;;3.53;2.80;;;11.50;99.90;;;;;;5048982;28;20429;-79
2021/05/22 00:10:09;;;;;;;8.73;3.30;;;11.50;99.90;;;;;;5051396;28;20490;-79
2021/05/22 00:12:40;;;;;;;5.47;2.77;;;11.50;99.90;;;;;;5053009;28;20433;-79
2021/05/22 00:15:12;;;;;;;3.00;2.53;;;11.50;99.90;;;;;;5052165;28;20418;-80
2021/05/22 00:17:38;;;;;;;3.07;2.77;;;11.50;99.90;;;;;;5053004;28;20517;-79
2021/05/22 00:20:08;;;;;;;4.80;2.80;;;11.50;99.90;;;;;;5052663;28;20859;-80
2021/05/22 00:22:40;;;;;;;4.63;3.43;;;11.50;99.90;;;;;;5059720;28;20454;-80
2021/05/22 00:25:09;;;;;;;3.00;2.80;;;11.60;99.90;;;;;;5054561;28;20424;-80
2021/05/22 00:27:40;;;;;;;4.33;3.13;;;11.60;99.90;;;;;;5035086;28;20533;-79
2021/05/22 00:30:13;;;;;;;4.33;3.03;;;11.60;99.90;;;;;;5050266;28;20432;-80
2021/05/22 00:32:41;;;;;;;3.27;3.00;;;11.50;99.90;;;;;;5042812;28;20887;-79
2021/05/22 00:35:08;;;;;;;3.80;3.00;;;11.60;99.90;;;;;;5052149;28;20968;-79
2021/05/22 00:37:34;;;;;;;4.07;2.93;;;11.60;99.90;;;;;;5051852;28;20430;-79
2021/05/22 00:40:00;;;;;;;4.20;2.63;;;11.50;99.90;;;;;;5049088;28;20439;-79
2021/05/22 00:42:33;;;;;;;7.07;2.80;;;11.50;99.90;;;;;;5051846;28;20468;-79
2021/05/22 00:45:14;;;;;;;5.67;2.70;;;11.40;99.90;;;;;;5047981;28;20475;-78
2021/05/22 00:47:45;;;;;;;3.20;2.53;;;11.40;99.90;;;;;;5057857;28;20448;-79
2021/05/22 00:50:27;;;;;;;4.23;2.60;;;11.40;99.90;;;;;;5050516;28;20434;-79
2021/05/22 00:53:01;;;;;;;8.93;2.73;;;11.40;99.90;;;;;;5049747;28;20461;-79
2021/05/22 00:55:30;;;;;;;2.90;2.70;;;11.40;99.90;;;;;;5051509;28;20458;-80
2021/05/22 00:58:02;;;;;;;3.13;2.60;;;11.40;99.90;;;;;;5060448;28;20537;-80
2021/05/22 01:00:42;;;;;;;3.07;2.87;;;11.40;99.90;;;;;;5051833;28;20504;-79
2021/05/22 01:03:13;;;;;;;3.40;2.80;;;11.30;99.90;;;;;;5057127;28;20793;-80
2021/05/22 01:05:45;;;;;;;4.80;2.87;;;11.30;99.90;;;;;;5051230;28;20922;-79
2021/05/22 01:08:23;;;;;;;3.70;2.83;;;11.20;99.90;;;;;;5045132;28;20463;-80
2021/05/22 01:10:58;;;;;;;2.93;2.70;;;11.20;99.90;;;;;;5050807;28;20419;-79
2021/05/22 01:13:26;;;;;;;4.07;3.10;;;11.20;99.90;;;;;;5051567;28;20457;-79
2021/05/22 01:15:57;;;;;;;2.73;2.50;;;11.20;99.90;;;;;;5052507;28;20438;-79
2021/05/22 01:18:24;;;;;;;2.97;2.77;;;11.20;99.90;;;;;;5050141;28;20813;-79
2021/05/22 01:20:56;;;;;;;4.00;3.07;;;11.20;99.90;;;;;;5055215;28;20574;-79
2021/05/22 01:23:38;;;;;;;4.47;3.07;;;11.20;99.90;;;;;;5053617;28;20434;-79
2021/05/22 01:26:10;;;;;;;3.13;2.77;;;11.20;99.90;;;;;;5057976;28;20818;-79
2021/05/22 01:28:39;;;;;;;3.93;2.90;;;11.20;99.90;;;;;;5055206;28;20930;-79
2021/05/22 01:31:10;;;;;;;4.17;3.13;;;11.10;99.90;;;;;;5054690;28;20438;-79
2021/05/22 01:33:39;;;;;;;4.47;2.90;;;11.10;99.90;;;;;;5055428;28;20909;-79
2021/05/22 01:36:09;;;;;;;8.23;3.10;;;11.20;99.90;;;;;;5053170;28;20415;-79
2021/05/22 01:38:35;;;;;;;3.47;3.20;;;11.20;99.90;;;;;;5054223;28;20458;-78
2021/05/22 01:41:08;;;;;;;3.77;2.90;;;11.20;99.90;;;;;;5061228;28;20794;-79
2021/05/22 01:43:38;;;;;;;5.33;2.93;;;11.20;99.90;;;;;;5054928;28;20435;-79
2021/05/22 01:46:10;;;;;;;2.63;2.43;;;11.20;99.90;;;;;;5052728;28;20431;-80
2021/05/22 01:48:42;;;;;;;5.70;2.87;;;11.20;99.90;;;;;;5054674;28;20465;-78
2021/05/22 01:51:15;;;;;;;5.93;2.80;;;11.10;99.90;;;;;;5054004;28;20480;-79
2021/05/22 01:54:02;;;;;;;2.70;2.50;;;11.10;99.90;;;;;;5053722;28;20475;-79
2021/05/22 01:56:29;;;;;;;3.40;2.63;;;11.10;99.90;;;;;;5061438;28;20757;-79
2021/05/22 01:59:02;;;;;;;4.47;2.90;;;11.10;99.90;;;;;;5057881;28;20449;-79
2021/05/22 02:01:31;;;;;;;3.97;2.90;;;11.10;99.90;;;;;;5057709;28;20533;-79
2021/05/22 02:04:04;;;;;;;5.83;2.90;;;11.10;99.90;;;;;;5055592;28;20483;-80
2021/05/22 02:06:39;;;;;;;3.53;2.80;;;11.10;99.90;;;;;;5053053;28;20514;-79
2021/05/22 02:09:12;;;;;;;7.00;3.40;;;11.00;99.90;;;;;;5053539;28;20474;-78
2021/05/22 02:11:48;;;;;;;4.67;3.03;;;11.00;99.90;;;;;;5053506;28;20918;-78
2021/05/22 02:14:30;;;;;;;3.63;3.03;;;11.00;99.90;;;;;;5052874;28;20847;-79
2021/05/22 02:17:03;;;;;;;6.00;2.57;;;11.00;99.90;;;;;;5053311;28;20509;-80
2021/05/22 02:19:32;;;;;;;6.03;3.00;;;11.00;99.90;;;;;;5053328;28;20552;-78
2021/05/22 02:22:02;;;;;;;4.43;2.77;;;11.00;99.90;;;;;;5052183;28;20434;-77
2021/05/22 02:24:28;;;;;;;4.60;2.60;;;10.90;99.90;;;;;;5049799;28;20489;-76
2021/05/22 02:27:03;;;;;;;4.63;2.90;;;10.90;99.90;;;;;;5053768;28;20441;-78
2021/05/22 02:29:33;;;;;;;3.53;2.83;;;10.90;99.90;;;;;;5053504;28;20524;-80
2021/05/22 02:32:07;;;;;;;4.30;3.00;;;11.00;99.90;;;;;;5051321;28;20554;-78
2021/05/22 02:34:51;;;;;;;4.10;3.10;;;10.90;99.90;;;;;;5048441;28;20429;-80
2021/05/22 02:37:24;;;;;;;4.00;3.00;;;11.00;99.90;;;;;;5053447;28;20518;-78
2021/05/22 02:39:56;;;;;;;3.53;2.47;;;11.00;99.90;;;;;;5052959;28;21200;-79
2021/05/22 02:42:26;;;;;;;4.80;3.00;;;11.00;99.90;;;;;;5040176;28;20449;-80
2021/05/22 02:45:00;;;;;;;7.90;3.20;;;11.00;99.90;;;;;;5039070;28;20774;-79
2021/05/22 02:47:29;;;;;;;5.00;2.83;;;11.00;99.90;;;;;;5053722;28;20481;-78
2021/05/22 02:50:05;;;;;;;4.27;2.90;;;11.00;99.90;;;;;;5053215;28;20511;-79
2021/05/22 02:52:34;;;;;;;3.87;2.87;;;11.00;99.90;;;;;;5054058;28;20469;-79
2021/05/22 02:55:05;;;;;;;4.70;3.43;;;11.10;99.90;;;;;;5020760;28;20427;-78
2021/05/22 02:57:38;;;;;;;3.20;2.90;;;11.20;99.90;;;;;;5052722;28;20439;-79
2021/05/22 03:00:11;;;;;;;5.23;2.90;;;11.20;99.90;;;;;;5056668;28;20459;-79
2021/05/22 03:02:41;;;;;;;5.23;2.73;;;11.30;99.90;;;;;;5048327;28;20532;-79
2021/05/22 03:05:08;;;;;;;5.57;3.20;;;11.40;99.90;;;;;;5050699;28;20465;-79
2021/05/22 03:07:38;;;;;;;4.73;3.23;;;11.40;99.90;;;;;;5052980;28;20423;-79
2021/05/22 03:10:09;;;;;;;3.20;2.73;;;11.40;99.90;;;;;;5053176;28;20546;-79
2021/05/22 03:12:40;;;;;;;5.40;3.30;;;11.40;99.90;;;;;;5052092;28;20439;-80
2021/05/22 03:15:10;;;;;;;3.33;3.03;;;11.40;99.90;;;;;;5032679;28;20440;-79
2021/05/22 03:17:41;;;;;;;3.70;3.10;;;11.30;99.90;;;;;;5052914;28;20449;-80
2021/05/22 03:20:13;;;;;;;4.33;2.90;;;11.30;99.90;;;;;;5058511;28;20480;-80
2021/05/22 03:22:38;;;;;;;6.60;3.40;;;11.30;99.90;;;;;;5052111;28;20453;-79
2021/05/22 03:25:09;;;;;;;5.63;2.97;;;11.20;99.90;;;;;;5052245;28;20538;-79
2021/05/22 03:27:37;;;;;;;2.97;2.50;;;11.20;99.90;;;;;;5052640;28;20496;-80
2021/05/22 03:30:08;;;;;;;6.40;4.20;;;11.30;99.90;;;;;;5053288;28;21032;-79
2021/05/22 03:32:39;;;;;;;3.53;3.10;;;11.20;99.90;;;;;;5034794;28;20434;-79
2021/05/22 03:35:07;;;;;;;8.57;3.10;;;11.20;99.90;;;;;;5051964;28;20488;-79
2021/05/22 03:37:36;;;;;;;4.50;2.80;;;11.20;99.90;;;;;;5051826;28;20892;-79
2021/05/22 03:40:05;;;;;;;6.33;2.50;;;11.30;99.90;;;;;;5051317;28;20565;-79
2021/05/22 03:42:39;;;;;;;3.67;2.50;;;11.30;99.90;;;;;;5055840;28;20522;-79
2021/05/22 03:45:06;;;;;;;4.77;2.83;;;11.40;99.90;;;;;;5043281;28;20547;-79
2021/05/22 03:47:32;;;;;;;10.50;3.33;;;11.30;99.90;;;;;;5058686;28;20521;-79
2021/05/22 03:49:57;;;;;;;6.50;3.50;;;11.40;99.90;;;;;;5043168;28;20554;-79
2021/05/22 03:52:32;;;;;;;6.70;3.67;;;11.30;99.90;;;;;;5047916;28;20984;-78
2021/05/22 03:55:00;;;;;;;4.50;3.33;;;11.30;99.90;;;;;;5050829;28;20445;-79
2021/05/22 03:57:31;;;;;;;7.30;3.27;;;11.30;99.90;;;;;;5061478;28;20767;-79
2021/05/22 04:00:01;;;;;;;4.90;3.23;;;11.30;99.90;;;;;;5060340;28;20439;-79
2021/05/22 04:02:31;;;;;;;4.90;2.93;;;11.30;99.90;;;;;;5045819;28;20479;-79
2021/05/22 04:05:06;;;;;;;4.80;3.00;;;11.40;99.90;;;;;;5052207;28;20464;-79
2021/05/22 04:07:34;;;;;;;3.33;2.73;;;11.40;99.90;;;;;;5050850;28;20443;-78
2021/05/22 04:10:08;;;;;;;5.57;3.50;;;11.40;99.90;;;;;;5058911;28;20536;-80
2021/05/22 04:12:34;;;;;;;9.23;3.50;;;11.50;99.90;;;;;;5052232;28;20418;-80
2021/05/22 04:15:00;;;;;;;5.03;3.60;;;11.50;99.90;;;;;;5046668;28;20473;-79
2021/05/22 04:17:35;;;;;;;6.50;3.67;;;11.50;99.90;;;;;;5048490;28;20463;-80
2021/05/22 04:20:09;;;;;;;7.60;3.30;;;11.50;99.90;;;;;;5030105;28;20438;-80
2021/05/22 04:22:42;;;;;;;4.63;2.97;;;11.50;99.90;;;;;;5051447;28;20439;-81
2021/05/22 04:25:13;;;;;;;3.80;2.70;;;11.50;99.90;;;;;;5050725;28;20541;-80
2021/05/22 04:27:39;;;;;;;6.23;3.20;;;11.50;99.90;;;;;;5051553;28;20423;-81
2021/05/22 04:30:11;;;;;;;6.43;3.27;;;11.60;99.90;;;;;;5042893;28;20465;-80
2021/05/22 04:32:41;;;;;;;4.00;3.40;;;11.50;99.90;;;;;;5051727;28;20510;-80
2021/05/22 04:35:13;;;;;;;9.83;3.37;;;11.50;99.90;;;;;;5051196;28;20529;-79
2021/05/22 04:37:41;;;;;;;7.93;3.37;;;11.60;99.90;;;;;;5051038;28;20525;-79
2021/05/22 04:40:09;;;;;;;7.50;3.30;;;11.60;99.90;;;;;;5050166;28;20434;-82
2021/05/22 04:42:35;;;;;;;10.73;3.17;;;11.70;99.90;;;;;;5051214;28;20418;-82
2021/05/22 04:45:06;;;;;;;5.50;3.17;;;11.70;99.90;;;;;;5051144;28;20438;-80
2021/05/22 04:47:33;;;;;;;6.50;3.13;;;11.70;99.90;;;;;;5052003;28;20781;-80
2021/05/22 04:50:07;;;;;;;3.83;3.37;;;11.70;99.90;;;;;;5054567;28;20473;-80
2021/05/22 04:52:39;;;;;;;17.93;3.97;;;11.80;99.90;;;;;;5048256;28;20438;-80
2021/05/22 04:55:08;;;;;;;7.63;3.53;;;11.90;99.90;;;;;;5055975;28;20519;-79
2021/05/22 04:57:38;;;;;;;9.00;4.10;;;11.80;99.90;;;;;;5054233;28;20439;-80
2021/05/22 05:00:07;;;;;;;4.50;3.30;;;11.80;99.90;;;;;;5054531;28;20450;-79
2021/05/22 05:02:35;;;;;;;9.20;3.40;;;11.70;99.90;;;;;;5048238;28;20478;-80
2021/05/22 05:05:04;;;;;;;6.90;3.83;;;11.80;99.90;;;;;;5054017;28;20813;-79
2021/05/22 05:07:32;;;;;;;5.00;3.40;;;11.80;99.90;;;;;;5055477;28;20438;-79
2021/05/22 05:10:03;;;;;;;7.73;3.53;;;11.70;99.90;;;;;;5055040;28;20564;-79
2021/05/22 05:12:34;;;;;;;3.50;3.20;;;11.80;99.90;;;;;;5055417;28;20886;-80
2021/05/22 05:15:00;;;;;;;8.20;3.77;;;11.80;99.90;;;;;;5055382;28;20934;-80
2021/05/22 05:17:28;;;;;;;3.63;3.30;;;11.80;99.90;;;;;;5056603;28;20424;-81
2021/05/22 05:19:59;;;;;;;7.63;3.20;;;11.80;99.90;;;;;;5032201;28;20491;-80
2021/05/22 05:22:27;;;;;;;6.83;3.93;;;11.80;99.90;;;;;;5055072;28;20456;-80
2021/05/22 05:24:56;;;;;;;6.73;3.80;;;11.90;99.90;;;;;;5058887;28;20439;-79
2021/05/22 05:27:27;;;;;;;7.73;3.33;;;11.80;99.90;;;;;;5054325;28;20477;-79
2021/05/22 05:29:54;;;;;;;5.37;3.70;;;11.90;99.90;;;;;;5054341;28;20501;-79
2021/05/22 05:32:20;;;;;;;6.30;3.27;;;12.00;99.90;;;;;;5063350;28;20455;-80
2021/05/22 05:34:51;;;;;;;6.53;3.23;;;12.00;99.90;;;;;;5052482;28;20430;-80
2021/05/22 05:37:19;;;;;;;7.13;4.07;;;12.10;99.90;;;;;;5060804;28;20433;-78
2021/05/22 05:39:47;;;;;;;5.57;3.60;;;12.00;99.90;;;;;;5055762;28;20438;-78
2021/05/22 05:42:15;;;;;;;8.97;4.43;;;12.10;99.90;;;;;;5054519;28;20760;-78
2021/05/22 05:44:43;;;;;;;4.80;3.30;;;12.10;99.90;;;;;;5053485;28;20431;-80
2021/05/22 05:47:14;;;;;;;5.83;3.70;;;12.20;99.90;;;;;;5054480;28;20980;-83
2021/05/22 05:49:42;;;;;;;8.37;3.70;;;12.20;99.90;;;;;;5054466;28;20510;-80
2021/05/22 05:52:15;;;;;;;5.17;3.70;;;12.20;99.90;;;;;;5055185;28;20479;-80
2021/05/22 05:54:43;;;;;;;6.50;3.60;;;12.10;99.90;;;;;;5054200;28;20456;-79
2021/05/22 05:57:16;;;;;;;5.07;3.07;;;12.10;99.90;;;;;;5043649;28;20442;-79
2021/05/22 05:59:47;;;;;;;5.33;3.10;;;11.90;99.90;;;;;;5054225;28;20916;-79
2021/05/22 06:02:20;;;;;;;3.47;2.80;;;11.90;99.90;;;;;;5053952;28;20947;-79
2021/05/22 06:04:48;;;;;;;7.17;3.30;;;11.80;99.90;;;;;;5053011;28;20449;-82
2021/05/22 06:07:19;;;;;;;5.20;3.00;;;11.80;99.90;;;;;;5054734;28;20529;-79
2021/05/22 06:09:47;;;;;;;5.47;3.10;;;11.80;99.90;;;;;;5053859;28;20479;-79
2021/05/22 06:12:17;;;;;;;7.97;3.40;;;11.70;99.90;;;;;;5051929;28;20436;-79
2021/05/22 06:14:52;;;;;;;7.50;4.07;;;11.80;99.90;;;;;;5059733;28;20431;-79
2021/05/22 06:17:18;;;;;;;4.83;4.20;;;11.80;99.90;;;;;;5038324;28;20474;-81
2021/05/22 06:19:49;;;;;;;6.63;3.53;;;11.80;99.90;;;;;;5053500;28;20502;-80
2021/05/22 06:22:22;;;;;;;4.60;3.10;;;11.80;99.90;;;;;;5035668;28;20446;-80
2021/05/22 06:24:54;;;;;;;9.50;3.40;;;11.60;99.90;;;;;;5051802;28;20813;-79
2021/05/22 06:27:27;;;;;;;4.03;2.67;;;11.60;99.90;;;;;;5052600;28;20438;-81
2021/05/22 06:29:56;;;;;;;6.87;2.70;;;11.40;99.90;;;;;;5052033;28;20470;-80
2021/05/22 06:32:24;;;;;;;8.03;2.80;;;11.40;99.90;;;;;;5052202;28;20430;-81
2021/05/22 06:34:52;;;;;;;9.57;3.33;;;11.20;99.90;;;;;;5048410;28;20454;-80
2021/05/22 06:37:23;;;;;;;4.40;3.13;;;11.20;99.90;;;;;;5052452;28;20437;-80
2021/05/22 06:39:54;;;;;;;5.60;3.10;;;11.20;99.90;;;;;;5051860;28;20600;-80
2021/05/22 06:42:22;;;;;;;7.60;3.10;;;11.20;99.90;;;;;;5051210;28;20457;-79
2021/05/22 06:45:15;;;;;;;3.20;2.70;;;11.10;99.90;;;;;;5052044;28;20452;-81
2021/05/22 06:47:39;;;;;;;7.00;2.73;;;11.20;99.90;;;;;;5043857;28;20837;-81
2021/05/22 06:50:06;;;;;;;4.03;2.87;;;11.30;99.90;;;;;;5060839;28;20506;-78
2021/05/22 06:52:34;;;;;;;5.40;3.90;;;11.30;99.90;;;;;;5048685;28;20892;-79
2021/05/22 06:55:06;;;;;;;6.30;3.20;;;11.50;99.90;;;;;;5034344;28;21086;-81
2021/05/22 06:57:35;;;;;;;4.87;2.53;;;11.50;99.90;;;;;;5051809;28;20533;-81
2021/05/22 07:00:06;;;;;;;12.33;2.80;;;11.50;99.90;;;;;;5059698;28;20441;-80
2021/05/22 07:02:37;;;;;;;6.20;4.10;;;11.50;99.90;;;;;;5033786;28;20475;-80
2021/05/22 07:05:11;;;;;;;6.53;3.70;;;11.50;99.90;;;;;;5052398;28;20464;-80
2021/05/22 07:07:39;;;;;;;4.60;3.20;;;11.50;99.90;;;;;;5050751;28;20435;-80
2021/05/22 07:10:10;;;;;;;12.83;3.57;;;11.60;99.90;;;;;;5050997;28;20483;-80
2021/05/22 07:12:41;;;;;;;11.23;3.27;;;11.60;99.90;;;;;;5049658;28;20423;-81
2021/05/22 07:15:11;;;;;;;11.97;3.30;;;11.60;99.90;;;;;;5050924;28;20453;-81
2021/05/22 07:17:39;;;;;;;6.83;3.20;;;11.70;99.90;;;;;;5051409;28;20426;-85
2021/05/22 07:20:08;;;;;;;10.67;4.47;;;11.80;99.90;;;;;;5044896;28;20794;-80
2021/05/22 07:22:34;;;;;;;4.10;2.87;;;11.90;99.90;;;;;;5050658;28;20469;-81
2021/05/22 07:25:05;;;;;;;5.27;2.90;;;11.90;99.90;;;;;;5050998;28;20438;-82
2021/05/22 07:27:39;;;;;;;3.60;3.20;;;12.00;99.90;;;;;;5055761;28;20922;-81
2021/05/22 07:30:11;;;;;;;7.13;3.80;;;12.00;99.90;;;;;;5050279;28;20837;-81
2021/05/22 07:32:40;;;;;;;4.80;3.40;;;11.90;99.90;;;;;;5050530;28;20495;-79
2021/05/22 07:35:15;;;;;;;4.87;2.93;;;11.90;99.90;;;;;;5051000;28;20457;-80
2021/05/22 07:37:44;;;;;;;11.03;3.27;;;11.80;99.90;;;;;;5048365;28;20942;-80
2021/05/22 07:40:14;;;;;;;5.50;3.03;;;11.80;99.90;;;;;;5050080;28;20457;-82
2021/05/22 07:42:40;;;;;;;5.43;2.90;;;11.80;99.90;;;;;;5049769;28;20773;-83
2021/05/22 07:45:07;;;;;;;4.27;3.10;;;11.80;99.90;;;;;;5049368;28;20431;-80
2021/05/22 07:47:34;;;;;;;3.30;2.83;;;11.70;99.90;;;;;;5049805;28;20427;-81
2021/05/22 07:49:59;;;;;;;4.03;2.50;;;11.80;99.90;;;;;;5051579;28;20517;-79
2021/05/22 07:52:31;;;;;;;3.23;2.70;;;11.70;99.90;;;;;;5062268;28;20930;-79
2021/05/22 07:54:59;;;;;;;4.73;3.17;;;11.80;99.90;;;;;;5050851;28;20517;-80
2021/05/22 07:57:29;;;;;;;4.83;2.57;;;11.80;99.90;;;;;;5033847;28;20431;-80
2021/05/22 07:59:58;;;;;;;5.20;2.80;;;11.60;99.90;;;;;;5043722;28;20437;-80
2021/05/22 08:02:28;;;;;;;7.60;3.27;;;11.70;99.90;;;;;;5033219;28;20462;-80
2021/05/22 08:05:03;;;;;;;5.27;2.90;;;11.70;99.90;;;;;;5051014;28;20552;-84
2021/05/22 08:07:34;;;;;;;5.93;2.77;;;11.60;99.90;;;;;;5054172;28;20429;-80
2021/05/22 08:10:03;;;;;;;5.00;2.80;;;11.60;99.90;;;;;;5044606;28;20565;-79
2021/05/22 08:12:31;;;;;;;3.93;2.47;;;11.60;99.90;;;;;;5049635;28;20441;-79
2021/05/22 08:15:03;;;;;;;2.63;2.30;;;11.60;99.90;;;;;;5046926;28;20728;-79
2021/05/22 08:17:29;;;;;;;7.80;2.77;;;11.70;99.90;;;;;;5049549;28;20430;-80
2021/05/22 08:19:55;;;;;;;3.50;2.33;;;11.70;99.90;;;;;;5050639;28;20454;-83
2021/05/22 08:22:21;;;;;;;5.33;2.60;;;11.70;99.90;;;;;;5049958;28;20450;-79
2021/05/22 08:24:49;;;;;;;5.47;2.27;;;11.60;99.90;;;;;;5041919;28;20446;-79
2021/05/22 08:27:20;;;;;;;5.87;2.23;;;11.40;99.90;;;;;;5046760;28;20466;-82
2021/05/22 08:29:48;;;;;;;5.90;2.23;;;11.20;99.90;;;;;;5056502;28;20445;-78
2021/05/22 08:32:16;;;;;;;6.83;2.53;;;11.00;99.90;;;;;;5051447;28;20445;-79
2021/05/22 08:34:45;;;;;;;3.20;1.80;;;10.90;99.90;;;;;;5049240;28;20484;-79
2021/05/22 08:37:13;;;;;;;5.60;2.10;;;10.80;99.90;;;;;;5057447;28;20465;-79
2021/05/22 08:39:44;;;;;;;9.40;2.23;;;10.70;99.90;;;;;;5046720;28;20607;-81
2021/05/22 08:42:18;;;;;;;5.43;2.00;;;10.70;99.90;;;;;;5042494;28;20491;-78
2021/05/22 08:44:48;;;;;;;9.00;2.53;;;10.50;99.90;;;;;;5049577;28;20426;-78
2021/05/22 08:47:14;;;;;;;5.53;1.93;;;10.50;99.90;;;;;;5051155;28;20517;-77
2021/05/22 08:49:44;;;;;;;6.57;2.80;;;10.50;99.90;;;;;;5049833;28;20475;-79
2021/05/22 08:52:20;;;;;;;3.77;2.07;;;10.50;99.90;;;;;;5042854;28;20450;-79
2021/05/22 08:54:47;;;;;;;7.40;2.20;;;10.50;99.90;;;;;;5042193;28;20467;-79
2021/05/22 08:57:13;;;;;;;4.83;2.60;;;10.40;99.90;;;;;;5048129;28;20454;-80
2021/05/22 08:59:46;;;;;;;10.17;2.60;;;10.50;99.90;;;;;;5051039;28;20449;-79
2021/05/22 09:02:23;;;;;;;7.43;1.83;;;10.40;99.90;;;;;;5042414;28;20462;-81
2021/05/22 09:05:19;;;;;;;6.97;2.07;;;10.40;99.90;;;;;;5045652;28;20437;-80
2021/05/22 09:07:57;;;;;;;4.20;2.10;;;10.50;99.90;;;;;;5049722;28;20453;-79
2021/05/22 09:10:27;;;;;;;5.70;2.13;;;10.50;99.90;;;;;;5049578;28;20769;-82
2021/05/22 09:13:10;;;;;;;6.50;2.33;;;10.60;99.90;;;;;;5048786;28;20834;-79
2021/05/22 09:15:40;;;;;;;4.63;1.77;;;10.50;99.90;;;;;;5052639;28;20429;-80
2021/05/22 09:18:10;;;;;;;6.53;2.47;;;10.50;99.90;;;;;;5050440;28;20452;-80
2021/05/22 09:20:46;;;;;;;5.57;2.33;;;10.50;99.90;;;;;;5048199;28;20549;-79
2021/05/22 09:23:20;;;;;;;7.30;2.50;;;10.50;99.90;;;;;;5049880;28;20422;-79
2021/05/22 09:25:52;;;;;;;4.30;2.17;;;10.60;99.90;;;;;;5050072;28;20431;-79
2021/05/22 09:28:31;;;;;;;4.07;2.10;;;10.70;99.90;;;;;;5049099;28;20462;-80
2021/05/22 09:31:03;;;;;;;4.27;2.03;;;10.80;99.90;;;;;;5049827;28;20496;-79
2021/05/22 09:33:35;;;;;;;4.20;2.30;;;11.00;99.90;;;;;;5051629;28;20447;-79
2021/05/22 09:36:17;;;;;;;5.00;2.30;;;11.20;99.90;;;;;;5049210;28;20424;-79
2021/05/22 09:38:50;;;;;;;5.10;2.20;;;11.40;99.90;;;;;;5051384;28;20777;-79
2021/05/22 09:41:17;;;;;;;3.60;1.93;;;11.60;99.90;;;;;;5043717;28;20777;-79
2021/05/22 09:44:12;;;;;;;6.43;2.77;;;11.60;99.90;;;;;;5047918;28;20533;-81
2021/05/22 09:47:02;;;;;;;2.20;2.00;;;11.80;99.90;;;;;;5035351;28;20436;-79
2021/05/22 09:49:37;;;;;;;5.47;2.30;;;11.80;99.90;;;;;;5053342;28;20474;-83
2021/05/22 09:52:11;;;;;;;5.63;2.50;;;11.90;99.90;;;;;;5053560;28;20469;-79
2021/05/22 09:54:53;;;;;;;5.40;2.40;;;11.90;99.90;;;;;;5052181;28;20979;-81
2021/05/22 09:57:31;;;;;;;7.90;2.60;;;12.10;99.90;;;;;;5049414;28;20423;-79
2021/05/22 10:00:15;;;;;;;5.77;1.93;;;12.10;99.90;;;;;;5051831;28;20439;-79
2021/05/22 10:03:02;;;;;;;12.10;3.90;;;12.10;99.90;;;;;;5035930;28;20506;-82
2021/05/22 10:05:33;;;;;;;8.40;2.87;;;12.10;99.90;;;;;;5052154;28;20589;-79
2021/05/22 10:08:04;;;;;;;6.07;2.30;;;12.10;99.90;;;;;;5045442;28;20495;-79
2021/05/22 10:10:46;;;;;;;5.03;2.27;;;12.00;99.90;;;;;;5052810;28;20457;-81
2021/05/22 10:13:19;;;;;;;9.17;2.33;;;12.00;99.90;;;;;;5052454;28;20510;-81
2021/05/22 10:15:55;;;;;;;3.83;2.20;;;12.00;99.90;;;;;;5052168;28;21122;-86
2021/05/22 10:18:28;;;;;;;5.50;2.20;;;11.90;99.90;;;;;;5052093;28;20453;-80
2021/05/22 10:20:58;;;;;;;3.17;2.00;;;11.80;99.90;;;;;;5060771;28;20764;-81
2021/05/22 10:23:29;;;;;;;6.13;2.10;;;11.80;99.90;;;;;;5051706;28;20463;-81
2021/05/22 10:26:02;;;;;;;4.43;1.83;;;11.80;99.90;;;;;;5050381;28;20438;-81
2021/05/22 10:28:30;;;;;;;5.60;2.43;;;11.80;99.90;;;;;;5046341;28;20478;-80
2021/05/22 10:31:03;;;;;;;11.07;2.33;;;11.90;99.90;;;;;;5051370;28;21049;-80
2021/05/22 10:33:37;;;;;;;6.87;2.17;;;11.80;99.90;;;;;;5051476;28;21207;-80
2021/05/22 10:36:04;;;;;;;3.67;2.47;;;11.80;99.90;;;;;;5049549;28;20431;-81
2021/05/22 10:38:32;;;;;;;2.60;2.23;;;11.80;99.90;;;;;;5051567;28;20836;-81
2021/05/22 10:41:12;;;;;;;4.90;2.40;;;11.80;99.90;;;;;;5052433;28;20508;-80
2021/05/22 10:43:55;;;;;;;3.23;2.50;;;11.80;99.90;;;;;;5050805;28;20460;-81
2021/05/22 10:46:22;;;;;;;7.07;3.40;;;11.80;99.90;;;;;;5048473;28;20434;-80
2021/05/22 10:49:03;;;;;;;4.57;2.43;;;11.90;99.90;;;;;;5049725;28;20987;-80
2021/05/22 10:51:37;;;;;;;4.10;2.40;;;11.90;99.90;;;;;;5067743;28;20431;-80
2021/05/22 10:54:04;;;;;;;3.37;2.23;;;12.00;99.90;;;;;;5049402;28;20431;-82
2021/05/22 10:56:53;;;;;;;3.97;2.43;;;12.00;99.90;;;;;;5051432;28;20504;-80
2021/05/22 10:59:18;;;;;;;6.10;2.20;;;11.90;99.90;;;;;;5042829;28;20470;-81
2021/05/22 11:01:47;;;;;;;6.90;2.50;;;11.70;99.90;;;;;;5050529;28;20484;-85
2021/05/22 11:04:22;;;;;;;3.20;2.30;;;11.70;99.90;;;;;;5050346;28;20520;-81
2021/05/22 11:06:56;;;;;;;4.60;2.47;;;11.60;99.90;;;;;;5051375;28;21115;-81
2021/05/22 11:09:25;;;;;;;5.00;2.13;;;11.70;99.90;;;;;;5043192;28;20532;-82
2021/05/22 11:12:29;;;;;;;5.13;2.50;;;11.70;99.90;;;;;;5052225;28;20426;-82
2021/05/22 11:14:57;;;;;;;6.57;2.10;;;11.70;99.90;;;;;;5042583;28;20506;-83
2021/05/22 11:17:25;;;;;;;9.60;2.50;;;11.90;99.90;;;;;;5050109;28;20541;-80
2021/05/22 11:20:00;;;;;;;6.60;2.73;;;11.80;99.90;;;;;;5049838;28;20438;-81
2021/05/22 11:22:29;;;;;;;2.73;2.07;;;11.90;99.90;;;;;;5050903;28;20445;-82
2021/05/22 11:25:00;;;;;;;4.20;2.20;;;12.00;99.90;;;;;;5040350;28;20452;-82
2021/05/22 11:27:44;;;;;;;4.23;2.03;;;12.10;99.90;;;;;;5051630;28;20465;-80
2021/05/22 11:30:17;;;;;;;3.53;2.33;;;12.10;99.90;;;;;;5050466;28;20841;-81
2021/05/22 11:33:04;;;;;;;2.80;2.40;;;12.10;99.90;;;;;;5043050;28;20461;-83
2021/05/22 11:35:34;;;;;;;6.00;2.67;;;12.20;99.90;;;;;;5051899;28;20430;-81
2021/05/22 11:38:10;;;;;;;6.17;2.83;;;12.10;99.90;;;;;;5051164;28;20496;-82
2021/05/22 11:40:39;;;;;;;5.57;2.47;;;12.20;99.90;;;;;;5046980;28;20983;-83
2021/05/22 11:43:22;;;;;;;5.90;2.60;;;12.30;99.90;;;;;;5050641;28;20928;-82
2021/05/22 11:45:53;;;;;;;4.90;2.13;;;12.30;99.90;;;;;;5051370;28;20427;-82
2021/05/22 11:48:26;;;;;;;4.20;2.50;;;12.40;99.90;;;;;;5051516;28;20419;-84
2021/05/22 11:50:59;;;;;;;5.40;2.57;;;12.30;99.90;;;;;;5049288;28;20508;-81
2021/05/22 11:53:31;;;;;;;6.03;2.40;;;12.30;99.90;;;;;;5050140;28;20433;-80
2021/05/22 11:55:59;;;;;;;4.43;2.60;;;12.40;99.90;;;;;;5049028;28;20461;-81
2021/05/22 11:58:25;;;;;;;4.50;2.40;;;12.30;99.90;;;;;;5044018;28;21026;-82
2021/05/22 12:00:55;;;;;;;4.87;2.40;;;12.30;99.90;;;;;;5054585;28;20434;-82
2021/05/22 12:03:27;;;;;;;5.70;2.80;;;12.40;99.90;;;;;;5033324;28;20466;-81
2021/05/22 12:05:56;;;;;;;6.67;2.40;;;12.50;99.90;;;;;;5049388;28;20422;-86
2021/05/22 12:08:31;;;;;;;8.43;2.90;;;12.50;99.90;;;;;;5050116;28;20478;-81
2021/05/22 12:11:09;;;;;;;6.37;2.80;;;12.50;99.90;;;;;;5049026;28;20923;-83
2021/05/22 12:13:51;;;;;;;8.53;2.73;;;12.50;99.90;;;;;;5051047;28;20427;-84
2021/05/22 12:16:20;;;;;;;9.53;2.73;;;12.50;99.90;;;;;;5044325;28;20916;-81
2021/05/22 12:18:54;;;;;;;5.13;2.20;;;12.50;99.90;;;;;;5048399;28;20612;-83
2021/05/22 12:21:33;;;;;;;5.07;2.30;;;12.40;99.90;;;;;;5046810;28;20428;-82
2021/05/22 12:24:17;;;;;;;8.13;2.40;;;12.40;99.90;;;;;;5060070;28;20804;-84
2021/05/22 12:26:56;;;;;;;3.93;2.30;;;12.40;99.90;;;;;;5051927;28;20473;-85
2021/05/22 12:29:29;;;;;;;9.30;2.60;;;12.40;99.90;;;;;;5050407;28;20484;-82
2021/05/22 12:32:04;;;;;;;17.40;4.00;;;12.40;99.90;;;;;;5051110;28;20488;-84
2021/05/22 12:34:34;;;;;;;4.53;2.30;;;12.40;99.90;;;;;;5050480;28;20419;-84
2021/05/22 12:37:07;;;;;;;7.40;3.00;;;12.40;99.90;;;;;;5059938;28;20447;-85
2021/05/22 12:39:48;;;;;;;5.03;2.53;;;12.40;99.90;;;;;;5043272;28;20434;-84
2021/05/22 12:42:21;;;;;;;6.73;2.77;;;12.30;99.90;;;;;;5039526;28;20495;-86
2021/05/22 12:45:01;;;;;;;4.90;2.37;;;12.40;99.90;;;;;;5047567;28;20900;-83
2021/05/22 12:47:39;;;;;;;5.13;2.70;;;12.30;99.90;;;;;;5038929;28;20876;-87
2021/05/22 12:50:09;;;;;;;7.00;2.60;;;12.20;99.90;;;;;;5044116;28;20476;-84
2021/05/22 12:52:55;;;;;;;9.10;2.70;;;12.20;99.90;;;;;;5049467;28;20467;-85
2021/05/22 12:55:31;;;;;;;7.67;3.47;;;12.20;99.90;;;;;;5042840;28;20545;-83
2021/05/22 12:58:07;;;;;;;5.90;3.23;;;12.10;99.90;;;;;;5028832;28;20427;-84
2021/05/22 13:00:36;;;;;;;6.17;2.13;;;12.20;99.90;;;;;;5047299;28;20427;-83
2021/05/22 13:03:06;;;;;;;5.70;2.50;;;12.20;99.90;;;;;;5045705;28;20500;-83
2021/05/22 13:05:35;;;;;;;7.50;2.97;;;12.10;99.90;;;;;;5050021;28;20431;-86
2021/05/22 13:08:04;;;;;;;3.50;2.10;;;12.10;99.90;;;;;;5052217;28;20420;-84